createdAt,value
2022-08-05T00:00:46.441Z,20.82
2022-08-05T00:03:16.290Z,20.80
2022-08-05T00:06:06.610Z,20.61
2022-08-05T00:08:34.476Z,20.44
2022-08-05T00:11:02.835Z,20.56
2022-08-05T00:13:38.922Z,20.56
2022-08-05T00:16:08.453Z,20.56
2022-08-05T00:18:35.449Z,20.45
2022-08-05T00:21:01.806Z,20.16
2022-08-05T00:23:31.087Z,20.27
2022-08-05T00:26:13.546Z,20.07
2022-08-05T00:28:43.492Z,20.14
2022-08-05T00:31:12.837Z,20.22
2022-08-05T00:34:54.740Z,19.96
2022-08-05T00:37:10.632Z,19.91
2022-08-05T00:39:13.916Z,19.97
2022-08-05T00:41:51.546Z,19.95
2022-08-05T00:44:21.873Z,19.78
2022-08-05T00:46:54.214Z,19.75
2022-08-05T00:49:28.095Z,19.74
2022-08-05T00:51:59.291Z,19.75
2022-08-05T00:54:28.125Z,19.61
2022-08-05T00:56:56.731Z,19.52
2022-08-05T00:59:23.051Z,19.32
2022-08-05T01:01:49.470Z,19.22
2022-08-05T01:04:19.916Z,19.31
2022-08-05T01:06:52.966Z,19.15
2022-08-05T01:09:20.256Z,19.16
2022-08-05T01:11:50.802Z,18.91
2022-08-05T01:14:28.313Z,18.69
2022-08-05T01:17:17.723Z,18.32
2022-08-05T01:20:01.182Z,18.29
2022-08-05T01:22:57.255Z,18.51
2022-08-05T01:25:40.425Z,18.36
2022-08-05T01:28:13.589Z,18.43
2022-08-05T01:30:53.511Z,18.60
2022-08-05T01:33:25.232Z,18.59
2022-08-05T01:35:55.578Z,18.68
2022-08-05T01:38:29.292Z,18.78
2022-08-05T01:40:59.520Z,18.56
2022-08-05T01:43:27.772Z,18.49
2022-08-05T01:45:57.215Z,18.49
2022-08-05T01:48:27.042Z,18.50
2022-08-05T01:50:55.614Z,18.55
2022-08-05T01:53:57.200Z,18.50
2022-08-05T01:56:13.731Z,18.57
2022-08-05T01:59:03.239Z,18.50
2022-08-05T02:01:34.201Z,18.87
2022-08-05T02:04:09.129Z,18.86
2022-08-05T02:06:38.765Z,18.97
2022-08-05T02:09:06.440Z,19.00
2022-08-05T02:11:48.182Z,18.89
2022-08-05T02:14:28.875Z,18.89
2022-08-05T02:17:04.986Z,18.87
2022-08-05T02:19:35.057Z,18.62
2022-08-05T02:22:09.080Z,18.65
2022-08-05T02:24:51.514Z,18.67
2022-08-05T02:27:30.198Z,18.73
2022-08-05T02:30:10.298Z,18.93
2022-08-05T02:32:38.000Z,18.84
2022-08-05T02:35:14.511Z,18.78
2022-08-05T02:37:47.772Z,18.46
2022-08-05T02:40:21.288Z,18.23
2022-08-05T02:42:52.675Z,18.12
2022-08-05T02:45:24.255Z,18.09
2022-08-05T02:48:07.072Z,18.00
2022-08-05T02:50:43.658Z,18.03
2022-08-05T02:53:18.928Z,17.95
2022-08-05T02:55:54.327Z,17.89
2022-08-05T02:58:26.887Z,17.89
2022-08-05T03:00:56.512Z,17.91
2022-08-05T03:03:23.533Z,17.90
2022-08-05T03:06:55.890Z,17.92
2022-08-05T03:08:42.812Z,17.94
2022-08-05T03:11:57.390Z,17.99
2022-08-05T03:14:07.891Z,17.99
2022-08-05T03:16:35.808Z,18.00
2022-08-05T03:19:04.201Z,17.97
2022-08-05T03:21:44.212Z,17.83
2022-08-05T03:24:15.539Z,17.75
2022-08-05T03:26:41.952Z,17.72
2022-08-05T03:29:12.449Z,17.76
2022-08-05T03:31:56.680Z,17.71
2022-08-05T03:34:24.358Z,17.65
2022-08-05T03:36:50.978Z,17.66
2022-08-05T03:39:26.578Z,17.67
2022-08-05T03:41:56.343Z,17.63
2022-08-05T03:44:23.350Z,17.52
2022-08-05T03:46:49.793Z,17.56
2022-08-05T03:49:16.255Z,17.59
2022-08-05T03:52:50.073Z,17.58
2022-08-05T03:56:01.935Z,17.56
2022-08-05T03:57:51.903Z,17.57
2022-08-05T04:00:19.871Z,17.55
2022-08-05T04:02:58.870Z,17.47
2022-08-05T04:05:33.201Z,17.51
2022-08-05T04:08:03.467Z,17.43
2022-08-05T04:10:37.922Z,17.38
2022-08-05T04:13:06.415Z,17.43
2022-08-05T04:15:36.019Z,17.54
2022-08-05T04:18:06.735Z,17.50
2022-08-05T04:20:34.008Z,17.51
2022-08-05T04:23:00.383Z,17.52
2022-08-05T04:25:56.619Z,17.39
2022-08-05T04:28:13.980Z,17.48
2022-08-05T04:30:41.359Z,17.50
2022-08-05T04:33:09.396Z,17.55
2022-08-05T04:36:16.177Z,17.44
2022-08-05T04:38:22.260Z,17.44
2022-08-05T04:41:06.508Z,17.53
2022-08-05T04:43:34.138Z,17.55
2022-08-05T04:46:00.659Z,17.56
2022-08-05T04:48:28.415Z,17.38
2022-08-05T04:51:02.905Z,17.40
2022-08-05T04:53:36.502Z,17.50
2022-08-05T04:56:33.959Z,17.51
2022-08-05T04:58:52.615Z,17.24
2022-08-05T05:02:05.740Z,17.11
2022-08-05T05:04:05.270Z,17.22
2022-08-05T05:06:39.034Z,17.44
2022-08-05T05:09:07.507Z,17.61
2022-08-05T05:11:42.173Z,17.60
2022-08-05T05:14:27.877Z,17.50
2022-08-05T05:16:58.534Z,17.43
2022-08-05T05:19:26.613Z,17.30
2022-08-05T05:21:55.563Z,16.86
2022-08-05T05:24:22.198Z,16.75
2022-08-05T05:27:08.514Z,17.02
2022-08-05T05:30:03.400Z,17.01
2022-08-05T05:32:21.183Z,17.32
2022-08-05T05:34:47.525Z,17.22
2022-08-05T05:37:13.940Z,17.32
2022-08-05T05:39:42.539Z,17.21
2022-08-05T05:42:11.625Z,16.73
2022-08-05T05:44:44.416Z,16.73
2022-08-05T05:47:21.244Z,16.69
2022-08-05T05:49:52.615Z,16.60
2022-08-05T05:52:28.327Z,16.90
2022-08-05T05:55:07.388Z,16.84
2022-08-05T05:57:42.894Z,17.23
2022-08-05T06:00:20.544Z,17.46
2022-08-05T06:02:53.967Z,17.51
2022-08-05T06:05:20.586Z,17.46
2022-08-05T06:07:57.846Z,17.49
2022-08-05T06:10:29.403Z,17.42
2022-08-05T06:13:00.899Z,17.33
2022-08-05T06:16:30.697Z,17.16
2022-08-05T06:18:13.567Z,17.07
2022-08-05T06:20:41.757Z,16.99
2022-08-05T06:23:14.145Z,16.96
2022-08-05T06:26:12.553Z,16.82
2022-08-05T06:28:28.646Z,16.77
2022-08-05T06:30:55.532Z,16.71
2022-08-05T06:33:44.413Z,16.80
2022-08-05T06:36:10.158Z,16.81
2022-08-05T06:38:37.189Z,17.09
2022-08-05T06:41:04.762Z,17.06
2022-08-05T06:43:57.807Z,17.05
2022-08-05T06:46:17.730Z,17.10
2022-08-05T06:48:56.050Z,17.04
2022-08-05T06:51:30.183Z,16.86
2022-08-05T06:54:02.518Z,16.89
2022-08-05T06:56:34.541Z,16.97
2022-08-05T06:59:08.633Z,17.01
2022-08-05T07:01:36.243Z,17.16
2022-08-05T07:04:03.378Z,17.19
2022-08-05T07:06:30.117Z,17.25
2022-08-05T07:08:59.115Z,17.00
2022-08-05T07:11:25.746Z,17.37
2022-08-05T07:13:59.743Z,17.54
2022-08-05T07:17:56.257Z,17.53
2022-08-05T07:19:16.052Z,17.50
2022-08-05T07:22:01.479Z,17.28
2022-08-05T07:24:29.996Z,17.06
2022-08-05T07:26:56.751Z,17.35
2022-08-05T07:29:25.371Z,17.42
2022-08-05T07:32:09.939Z,17.57
2022-08-05T07:34:40.447Z,17.34
2022-08-05T07:37:09.162Z,17.43
2022-08-05T07:40:04.578Z,17.49
2022-08-05T07:42:33.427Z,17.50
2022-08-05T07:45:00.831Z,17.33
2022-08-05T07:47:27.300Z,17.31
2022-08-05T07:50:09.268Z,17.34
2022-08-05T07:52:43.059Z,17.40
2022-08-05T07:55:43.994Z,17.39
2022-08-05T07:58:02.985Z,17.39
2022-08-05T08:00:30.415Z,17.45
2022-08-05T08:03:15.375Z,17.51
2022-08-05T08:05:49.416Z,17.16
2022-08-05T08:08:16.619Z,17.22
2022-08-05T08:10:48.987Z,17.19
2022-08-05T08:13:21.929Z,17.12
2022-08-05T08:16:35.948Z,17.09
2022-08-05T08:18:42.387Z,17.14
2022-08-05T08:21:17.745Z,17.29
2022-08-05T08:24:02.807Z,17.50
2022-08-05T08:26:30.620Z,17.71
2022-08-05T08:29:02.090Z,17.32
2022-08-05T08:31:44.791Z,17.11
2022-08-05T08:34:11.127Z,17.02
2022-08-05T08:36:52.435Z,17.14
2022-08-05T08:39:22.201Z,17.16
2022-08-05T08:41:51.824Z,17.31
2022-08-05T08:45:23.125Z,17.43
2022-08-05T08:47:47.453Z,17.36
2022-08-05T08:50:30.478Z,17.66
2022-08-05T08:53:01.400Z,17.94
2022-08-05T08:56:01.877Z,17.55
2022-08-05T08:58:15.680Z,17.28
2022-08-05T09:00:42.081Z,17.38
2022-08-05T09:03:09.928Z,17.31
2022-08-05T09:05:38.368Z,17.17
2022-08-05T09:08:26.622Z,17.09
2022-08-05T09:10:57.288Z,16.98
2022-08-05T09:13:24.499Z,16.92
2022-08-05T09:15:58.027Z,16.99
2022-08-05T09:18:25.545Z,16.98
2022-08-05T09:20:51.870Z,17.04
2022-08-05T09:23:21.935Z,17.14
2022-08-05T09:26:01.029Z,17.10
2022-08-05T09:28:33.559Z,16.99
2022-08-05T09:31:44.192Z,16.92
2022-08-05T09:33:57.565Z,16.83
2022-08-05T09:36:27.612Z,16.87
2022-08-05T09:39:18.262Z,17.02
2022-08-05T09:42:05.562Z,17.08
2022-08-05T09:44:40.969Z,17.03
2022-08-05T09:47:10.502Z,17.15
2022-08-05T09:50:01.503Z,17.24
2022-08-05T09:52:35.375Z,17.23
2022-08-05T09:55:58.453Z,17.40
2022-08-05T09:57:58.415Z,17.38
2022-08-05T10:00:25.322Z,17.33
2022-08-05T10:02:53.516Z,17.47
2022-08-05T10:05:23.692Z,17.26
2022-08-05T10:08:34.678Z,17.32
2022-08-05T10:10:45.556Z,17.21
2022-08-05T10:13:47.262Z,17.01
2022-08-05T10:16:41.758Z,16.60
2022-08-05T10:19:19.193Z,16.45
2022-08-05T10:21:50.404Z,16.46
2022-08-05T10:24:19.339Z,16.45
2022-08-05T10:26:52.707Z,16.46
2022-08-05T10:29:23.882Z,16.62
2022-08-05T10:33:01.409Z,16.70
2022-08-05T10:34:57.098Z,16.88
2022-08-05T10:37:40.514Z,17.05
2022-08-05T10:40:31.507Z,17.20
2022-08-05T10:43:04.695Z,17.24
2022-08-05T10:45:40.044Z,17.08
2022-08-05T10:48:57.163Z,17.08
2022-08-05T10:51:29.274Z,17.23
2022-08-05T10:54:23.153Z,17.16
2022-08-05T10:56:52.796Z,17.37
2022-08-05T11:00:03.710Z,17.30
2022-08-05T11:02:34.660Z,17.34
2022-08-05T11:05:06.913Z,17.53
2022-08-05T11:08:02.529Z,17.62
2022-08-05T11:10:27.247Z,17.58
2022-08-05T11:12:55.815Z,17.58
2022-08-05T11:16:00.210Z,17.50
2022-08-05T11:18:32.632Z,17.45
2022-08-05T11:21:00.782Z,17.28
2022-08-05T11:24:04.386Z,17.28
2022-08-05T11:26:32.467Z,17.51
2022-08-05T11:29:06.585Z,17.77
2022-08-05T11:31:56.778Z,17.91
2022-08-05T11:34:39.674Z,18.13
2022-08-05T11:38:29.840Z,18.49
2022-08-05T11:40:00.520Z,18.92
2022-08-05T11:42:32.336Z,18.86
2022-08-05T11:45:05.963Z,19.00
2022-08-05T11:47:50.548Z,18.63
2022-08-05T11:50:21.394Z,18.55
2022-08-05T11:52:49.479Z,17.98
2022-08-05T11:55:16.685Z,17.99
2022-08-05T11:58:09.443Z,18.10
2022-08-05T12:00:38.446Z,18.09
2022-08-05T12:03:28.843Z,18.58
2022-08-05T12:06:06.017Z,18.10
2022-08-05T12:09:08.640Z,17.97
2022-08-05T12:11:46.323Z,17.97
2022-08-05T12:14:13.852Z,18.15
2022-08-05T12:16:45.351Z,18.34
2022-08-05T12:20:17.204Z,18.66
2022-08-05T12:21:59.675Z,19.01
2022-08-05T12:24:27.668Z,19.07
2022-08-05T12:26:54.098Z,19.41
2022-08-05T12:29:26.208Z,19.45
2022-08-05T12:31:55.181Z,19.61
2022-08-05T12:34:25.908Z,19.40
2022-08-05T12:36:53.791Z,19.33
2022-08-05T12:39:20.766Z,19.52
2022-08-05T12:41:47.320Z,19.68
2022-08-05T12:44:32.786Z,19.69
2022-08-05T12:47:00.595Z,19.71
2022-08-05T12:50:03.016Z,19.89
2022-08-05T12:52:32.296Z,20.15
2022-08-05T12:55:26.854Z,20.49
2022-08-05T12:58:49.212Z,20.47
2022-08-05T13:02:05.902Z,20.70
2022-08-05T13:03:32.890Z,20.95
2022-08-05T13:06:01.229Z,21.27
2022-08-05T13:08:32.110Z,21.73
2022-08-05T13:11:02.461Z,21.72
2022-08-05T13:14:06.686Z,21.39
2022-08-05T13:16:17.161Z,21.02
2022-08-05T13:18:55.188Z,21.02
2022-08-05T13:21:28.219Z,21.13
2022-08-05T13:24:04.982Z,21.54
2022-08-05T13:26:31.375Z,21.75
2022-08-05T13:28:58.959Z,21.83
2022-08-05T13:31:33.714Z,21.62
2022-08-05T13:34:21.710Z,21.70
2022-08-05T13:36:51.984Z,21.51
2022-08-05T13:40:14.424Z,21.69
2022-08-05T13:42:04.918Z,21.77
2022-08-05T13:44:32.340Z,21.83
2022-08-05T13:47:02.315Z,21.78
2022-08-05T13:49:35.518Z,22.20
2022-08-05T13:52:14.637Z,21.78
2022-08-05T13:54:41.681Z,21.20
2022-08-05T13:57:09.400Z,20.88
2022-08-05T13:59:37.305Z,20.89
2022-08-05T14:02:26.620Z,20.87
2022-08-05T14:04:55.978Z,20.84
2022-08-05T14:08:00.497Z,20.74
2022-08-05T14:10:28.631Z,20.57
2022-08-05T14:12:57.750Z,20.79
2022-08-05T14:16:07.706Z,21.00
2022-08-05T14:18:17.547Z,21.12
2022-08-05T14:20:54.964Z,21.40
2022-08-05T14:23:25.414Z,21.77
2022-08-05T14:25:58.509Z,22.24
2022-08-05T14:28:27.027Z,22.70
2022-08-05T14:30:54.354Z,23.06
2022-08-05T14:33:22.600Z,22.83
2022-08-05T14:35:51.804Z,23.09
2022-08-05T14:38:32.093Z,22.86
2022-08-05T14:41:00.797Z,22.76
2022-08-05T14:44:01.832Z,22.86
2022-08-05T14:46:13.610Z,22.69
2022-08-05T14:48:40.426Z,22.39
2022-08-05T14:51:06.816Z,21.95
2022-08-05T14:53:34.980Z,21.58
2022-08-05T14:56:11.353Z,21.52
2022-08-05T14:58:38.628Z,21.92
2022-08-05T15:01:16.152Z,22.59
2022-08-05T15:03:43.237Z,22.29
2022-08-05T15:06:15.048Z,22.14
2022-08-05T15:08:59.580Z,21.77
2022-08-05T15:11:51.240Z,21.87
2022-08-05T15:14:33.548Z,22.22
2022-08-05T15:17:04.700Z,22.33
2022-08-05T15:19:31.906Z,22.18
2022-08-05T15:22:00.241Z,21.93
2022-08-05T15:24:27.948Z,22.05
2022-08-05T15:26:55.880Z,21.96
2022-08-05T15:29:23.311Z,21.95
2022-08-05T15:31:52.744Z,21.75
2022-08-05T15:34:33.177Z,21.52
2022-08-05T15:37:06.151Z,21.63
2022-08-05T15:41:00.645Z,21.78
2022-08-05T15:42:54.699Z,21.67
2022-08-05T15:45:06.286Z,22.10
2022-08-05T15:47:32.806Z,22.31
2022-08-05T15:50:03.044Z,22.32
2022-08-05T15:52:53.693Z,22.40
2022-08-05T15:55:16.811Z,22.45
2022-08-05T15:57:44.962Z,22.31
2022-08-05T16:00:12.595Z,22.40
2022-08-05T16:02:43.343Z,22.39
2022-08-05T16:05:11.275Z,22.02
2022-08-05T16:07:37.923Z,21.44
2022-08-05T16:10:12.718Z,20.98
2022-08-05T16:12:40.226Z,20.98
2022-08-05T16:15:06.839Z,20.86
2022-08-05T16:17:36.109Z,20.94
2022-08-05T16:20:07.698Z,21.14
2022-08-05T16:22:38.255Z,21.12
2022-08-05T16:25:09.583Z,21.31
2022-08-05T16:28:00.413Z,21.38
2022-08-05T16:30:25.857Z,20.95
2022-08-05T16:32:54.219Z,20.85
2022-08-05T16:35:27.911Z,20.83
2022-08-05T16:38:02.700Z,20.73
2022-08-05T16:40:51.627Z,20.66
2022-08-05T16:43:23.690Z,20.54
2022-08-05T16:46:04.637Z,20.62
2022-08-05T16:48:37.247Z,20.44
2022-08-05T16:51:03.795Z,20.35
2022-08-05T16:54:05.933Z,20.49
2022-08-05T16:56:22.072Z,20.32
2022-08-05T16:58:49.781Z,20.17
2022-08-05T17:01:16.484Z,19.84
2022-08-05T17:03:45.385Z,19.77
2022-08-05T17:06:11.933Z,19.63
2022-08-05T17:08:52.903Z,19.55
2022-08-05T17:11:25.541Z,19.58
2022-08-05T17:14:05.182Z,19.47
2022-08-05T17:16:36.368Z,19.48
2022-08-05T17:19:07.620Z,19.36
2022-08-05T17:21:37.238Z,19.57
2022-08-05T17:24:19.428Z,19.64
2022-08-05T17:26:55.376Z,19.47
2022-08-05T17:29:33.083Z,19.42
2022-08-05T17:32:06.139Z,19.35
2022-08-05T17:34:34.854Z,19.32
2022-08-05T17:37:01.495Z,19.20
2022-08-05T17:39:33.156Z,19.12
2022-08-05T17:42:17.558Z,19.07
2022-08-05T17:44:50.357Z,18.96
2022-08-05T17:47:21.965Z,18.90
2022-08-05T17:50:00.457Z,18.71
2022-08-05T17:52:32.330Z,18.62
2022-08-05T17:54:59.365Z,18.62
2022-08-05T17:57:25.761Z,18.57
2022-08-05T18:00:03.564Z,18.48
2022-08-05T18:02:32.342Z,18.53
2022-08-05T18:04:58.856Z,18.56
2022-08-05T18:07:32.777Z,18.44
2022-08-05T18:10:10.190Z,18.40
2022-08-05T18:12:37.152Z,18.37
2022-08-05T18:15:04.766Z,18.33
2022-08-05T18:17:59.194Z,18.28
2022-08-05T18:20:18.306Z,18.21
2022-08-05T18:22:54.686Z,18.14
2022-08-05T18:25:23.654Z,18.03
2022-08-05T18:27:52.285Z,17.98
2022-08-05T18:30:19.490Z,17.95
2022-08-05T18:32:53.298Z,17.98
2022-08-05T18:35:28.394Z,17.93
2022-08-05T18:38:12.546Z,17.83
2022-08-05T18:41:53.397Z,17.78
2022-08-05T18:43:31.654Z,17.79
2022-08-05T18:46:05.159Z,17.77
2022-08-05T18:48:33.552Z,17.70
2022-08-05T18:51:01.620Z,17.57
2022-08-05T18:53:50.132Z,17.57
2022-08-05T18:56:16.879Z,17.52
2022-08-05T18:58:48.177Z,17.39
2022-08-05T19:01:17.894Z,17.34
2022-08-05T19:03:53.079Z,17.39
2022-08-05T19:06:22.175Z,17.30
2022-08-05T19:09:01.514Z,17.02
2022-08-05T19:11:28.710Z,16.93
2022-08-05T19:14:52.132Z,17.00
2022-08-05T19:17:00.823Z,16.94
2022-08-05T19:19:27.179Z,16.90
2022-08-05T19:21:56.960Z,16.79
2022-08-05T19:24:34.901Z,16.79
2022-08-05T19:27:04.187Z,16.67
2022-08-05T19:29:36.289Z,16.65
2022-08-05T19:32:08.545Z,16.70
2022-08-05T19:34:38.049Z,16.59
2022-08-05T19:37:05.005Z,16.43
2022-08-05T19:39:32.012Z,16.24
2022-08-05T19:42:13.441Z,16.29
2022-08-05T19:44:44.668Z,16.21
2022-08-05T19:47:12.355Z,16.10
2022-08-05T19:49:42.529Z,15.83
2022-08-05T19:52:31.587Z,15.71
2022-08-05T19:54:57.883Z,15.74
2022-08-05T19:57:47.296Z,15.63
2022-08-05T20:00:13.488Z,15.68
2022-08-05T20:02:39.836Z,15.88
2022-08-05T20:05:09.584Z,15.73
2022-08-05T20:07:48.701Z,15.70
2022-08-05T20:10:16.287Z,15.70
2022-08-05T20:12:45.974Z,15.73
2022-08-05T20:15:14.539Z,15.69
2022-08-05T20:17:40.892Z,15.67
2022-08-05T20:20:11.034Z,15.64
2022-08-05T20:22:37.559Z,15.67
2022-08-05T20:25:08.529Z,15.74
2022-08-05T20:27:41.960Z,15.86
2022-08-05T20:30:09.275Z,15.74
2022-08-05T20:32:36.411Z,15.84
2022-08-05T20:35:11.430Z,15.71
2022-08-05T20:38:05.592Z,15.69
2022-08-05T20:40:24.606Z,15.63
2022-08-05T20:42:53.401Z,15.62
2022-08-05T20:45:56.374Z,15.76
2022-08-05T20:48:12.799Z,15.85
2022-08-05T20:50:46.788Z,15.81
2022-08-05T20:53:15.972Z,15.62
2022-08-05T20:55:56.062Z,15.44
2022-08-05T20:58:29.101Z,15.37
2022-08-05T21:00:56.845Z,15.34
2022-08-05T21:03:23.403Z,15.01
2022-08-05T21:05:54.740Z,14.71
2022-08-05T21:08:35.927Z,14.34
2022-08-05T21:11:12.858Z,14.15
2022-08-05T21:13:59.042Z,14.06
2022-08-05T21:16:30.025Z,14.05
2022-08-05T21:18:59.983Z,14.11
2022-08-05T21:21:39.063Z,14.20
2022-08-05T21:24:06.795Z,14.20
2022-08-05T21:26:33.635Z,14.13
2022-08-05T21:29:03.774Z,14.12
2022-08-05T21:31:41.501Z,14.07
2022-08-05T21:34:08.417Z,14.35
2022-08-05T21:36:37.049Z,14.51
2022-08-05T21:39:03.587Z,14.53
2022-08-05T21:41:33.804Z,14.40
2022-08-05T21:44:01.544Z,14.15
2022-08-05T21:46:29.864Z,14.15
2022-08-05T21:48:56.568Z,14.05
2022-08-05T21:51:25.081Z,13.93
2022-08-05T21:54:09.538Z,14.04
2022-08-05T21:56:35.870Z,14.14
2022-08-05T21:59:22.702Z,13.97
2022-08-05T22:01:54.517Z,13.77
2022-08-05T22:04:21.302Z,13.48
2022-08-05T22:06:52.513Z,13.27
2022-08-05T22:09:21.512Z,13.19
2022-08-05T22:11:48.207Z,13.17
2022-08-05T22:14:33.929Z,13.19
2022-08-05T22:17:06.758Z,13.26
2022-08-05T22:20:01.088Z,13.22
2022-08-05T22:22:27.264Z,13.42
2022-08-05T22:24:55.761Z,13.37
2022-08-05T22:27:22.831Z,13.48
2022-08-05T22:29:49.187Z,13.69
2022-08-05T22:32:20.664Z,13.65
2022-08-05T22:34:49.388Z,13.62
2022-08-05T22:37:15.787Z,13.47
2022-08-05T22:39:42.251Z,13.26
2022-08-05T22:42:15.331Z,13.00
2022-08-05T22:44:42.746Z,12.94
2022-08-05T22:47:29.347Z,12.68
2022-08-05T22:50:20.850Z,12.58
2022-08-05T22:52:48.217Z,12.63
2022-08-05T22:55:19.021Z,12.70
2022-08-05T22:57:46.712Z,12.53
2022-08-05T23:00:17.949Z,12.49
2022-08-05T23:02:47.811Z,12.48
2022-08-05T23:05:15.313Z,12.51
2022-08-05T23:07:48.651Z,12.59
2022-08-05T23:10:19.894Z,12.58
2022-08-05T23:12:51.542Z,12.55
2022-08-05T23:15:21.514Z,12.48
2022-08-05T23:18:00.645Z,12.42
2022-08-05T23:20:29.580Z,12.36
2022-08-05T23:22:56.578Z,12.38
2022-08-05T23:25:52.295Z,12.33
2022-08-05T23:28:11.927Z,12.28
2022-08-05T23:30:40.683Z,12.20
2022-08-05T23:33:22.007Z,12.16
2022-08-05T23:35:52.475Z,12.07
2022-08-05T23:38:22.767Z,12.12
2022-08-05T23:40:49.531Z,12.05
2022-08-05T23:43:24.842Z,12.00
2022-08-05T23:46:02.952Z,11.88
2022-08-05T23:48:29.282Z,11.82
2022-08-05T23:50:55.620Z,11.72
2022-08-05T23:53:22.622Z,11.71
2022-08-05T23:55:49.565Z,11.62
2022-08-05T23:58:31.914Z,11.62
